createdAt,value
2023-04-23T00:00:54.925Z,5.66
2023-04-23T00:05:58.056Z,5.62
2023-04-23T00:11:02.702Z,5.63
2023-04-23T00:16:05.881Z,5.63
2023-04-23T00:21:09.353Z,5.59
2023-04-23T00:26:11.929Z,5.70
2023-04-23T00:31:14.605Z,5.72
2023-04-23T00:36:17.157Z,5.64
2023-04-23T00:41:19.801Z,5.54
2023-04-23T00:46:22.925Z,5.56
2023-04-23T00:51:26.141Z,5.60
2023-04-23T00:56:29.084Z,5.60
2023-04-23T01:01:33.438Z,5.52
2023-04-23T01:06:36.065Z,5.38
2023-04-23T01:11:42.565Z,5.27
2023-04-23T01:16:45.668Z,5.16
2023-04-23T01:21:50.613Z,5.02
2023-04-23T01:26:53.784Z,5.16
2023-04-23T01:31:57.519Z,5.03
2023-04-23T01:37:00.950Z,5.05
2023-04-23T01:42:04.148Z,5.17
2023-04-23T01:47:07.313Z,5.30
2023-04-23T01:52:10.130Z,5.52
2023-04-23T01:57:13.030Z,5.79
2023-04-23T02:02:16.325Z,5.74
2023-04-23T02:07:19.326Z,5.90
2023-04-23T02:12:22.296Z,6.16
2023-04-23T02:17:25.059Z,7.07
2023-04-23T02:22:28.395Z,9.00
2023-04-23T02:27:31.054Z,11.18
2023-04-23T02:32:33.721Z,13.34
2023-04-23T02:37:37.471Z,14.67
2023-04-23T02:42:41.250Z,15.93
2023-04-23T02:47:45.954Z,13.55
2023-04-23T02:52:49.859Z,11.63
2023-04-23T02:57:52.749Z,10.32
2023-04-23T03:02:55.977Z,9.68
2023-04-23T03:07:58.751Z,9.25
2023-04-23T03:13:02.052Z,9.10
2023-04-23T03:18:08.258Z,9.06
2023-04-23T03:23:12.336Z,8.87
2023-04-23T03:28:15.682Z,9.00
2023-04-23T03:33:18.438Z,8.99
2023-04-23T03:38:21.291Z,9.04
2023-04-23T03:43:26.026Z,9.15
2023-04-23T03:48:54.975Z,9.16
2023-04-23T03:54:02.545Z,9.40
2023-04-23T03:59:11.184Z,9.53
2023-04-23T04:04:14.470Z,9.42
2023-04-23T04:09:17.376Z,10.04
2023-04-23T04:14:21.033Z,10.15
2023-04-23T04:19:23.938Z,10.26
2023-04-23T04:24:27.533Z,10.79
2023-04-23T04:29:31.241Z,11.22
2023-04-23T04:34:33.884Z,11.42
2023-04-23T04:39:36.658Z,12.08
2023-04-23T04:44:39.442Z,12.52
2023-04-23T04:49:42.224Z,12.73
2023-04-23T04:54:45.033Z,12.82
2023-04-23T04:59:47.824Z,13.23
2023-04-23T05:04:50.502Z,13.56
2023-04-23T05:09:55.570Z,13.74
2023-04-23T05:14:58.188Z,13.68
2023-04-23T05:20:00.873Z,14.09
2023-04-23T05:25:04.392Z,14.52
2023-04-23T05:30:09.612Z,15.03
2023-04-23T05:35:12.426Z,15.47
2023-04-23T05:40:15.143Z,15.86
2023-04-23T05:45:17.825Z,16.06
2023-04-23T05:50:21.370Z,16.47
2023-04-23T05:55:24.139Z,16.69
2023-04-23T06:00:27.042Z,16.78
2023-04-23T06:05:29.992Z,16.87
2023-04-23T06:10:32.814Z,16.95
2023-04-23T06:15:35.439Z,17.13
2023-04-23T06:20:38.258Z,17.43
2023-04-23T06:25:40.940Z,17.69
2023-04-23T06:30:43.523Z,17.76
2023-04-23T06:35:47.008Z,18.14
2023-04-23T06:40:49.889Z,18.33
2023-04-23T06:45:52.528Z,18.38
2023-04-23T06:50:55.392Z,18.40
2023-04-23T06:55:58.000Z,18.48
2023-04-23T07:01:04.367Z,18.49
2023-04-23T07:06:10.410Z,18.65
2023-04-23T07:11:13.134Z,18.36
2023-04-23T07:16:15.806Z,18.40
2023-04-23T07:21:18.421Z,18.63
2023-04-23T07:26:21.300Z,18.78
2023-04-23T07:31:24.043Z,19.20
2023-04-23T07:36:28.976Z,19.11
2023-04-23T07:41:32.445Z,18.89
2023-04-23T07:46:35.041Z,19.48
2023-04-23T07:51:38.074Z,19.30
2023-04-23T07:56:43.115Z,19.09
2023-04-23T08:01:46.706Z,19.30
2023-04-23T08:06:49.501Z,18.59
2023-04-23T08:11:52.693Z,18.57
2023-04-23T08:16:55.732Z,18.65
2023-04-23T08:22:01.247Z,18.69
2023-04-23T08:27:03.977Z,18.60
2023-04-23T08:32:06.706Z,18.44
2023-04-23T08:37:16.546Z,18.34
2023-04-23T08:42:35.108Z,18.79
2023-04-23T08:47:45.097Z,19.40
2023-04-23T08:52:52.759Z,19.41
2023-04-23T08:57:55.875Z,19.05
2023-04-23T09:03:03.034Z,18.92
2023-04-23T09:08:10.624Z,18.35
2023-04-23T09:13:16.822Z,18.45
2023-04-23T09:18:20.397Z,18.34
2023-04-23T09:23:23.644Z,17.96
2023-04-23T09:28:38.856Z,18.62
2023-04-23T09:33:41.698Z,19.14
2023-04-23T09:38:44.381Z,17.77
2023-04-23T09:43:48.731Z,18.01
2023-04-23T09:48:52.768Z,17.96
2023-04-23T09:53:55.327Z,19.20
2023-04-23T09:58:57.883Z,20.06
2023-04-23T10:04:00.829Z,20.40
2023-04-23T10:09:04.147Z,20.85
2023-04-23T10:14:10.529Z,21.29
2023-04-23T10:19:21.166Z,20.64
2023-04-23T10:24:30.435Z,19.55
2023-04-23T10:29:35.270Z,19.74
2023-04-23T10:34:40.658Z,19.46
2023-04-23T10:39:45.164Z,19.39
2023-04-23T10:49:53.968Z,19.11
2023-04-23T10:55:02.306Z,19.02
2023-04-23T11:00:06.724Z,19.51
2023-04-23T11:05:12.508Z,19.72
2023-04-23T11:10:15.836Z,19.89
2023-04-23T11:15:19.543Z,19.75
2023-04-23T11:20:24.296Z,19.86
2023-04-23T11:25:29.005Z,20.05
2023-04-23T11:30:32.148Z,19.60
2023-04-23T11:35:40.694Z,19.83
2023-04-23T11:40:46.911Z,19.07
2023-04-23T11:45:49.620Z,19.10
2023-04-23T11:50:52.905Z,18.67
2023-04-23T11:55:55.418Z,18.76
2023-04-23T12:00:59.773Z,19.03
2023-04-23T12:06:02.536Z,19.78
2023-04-23T12:11:06.779Z,20.09
2023-04-23T12:16:10.974Z,19.35
2023-04-23T12:21:14.916Z,19.08
2023-04-23T12:26:21.435Z,19.48
2023-04-23T12:31:26.450Z,19.78
2023-04-23T12:36:32.652Z,20.04
2023-04-23T12:41:35.265Z,20.00
2023-04-23T12:46:37.841Z,20.03
2023-04-23T12:51:40.504Z,20.13
2023-04-23T12:56:43.249Z,20.23
2023-04-23T13:01:46.025Z,20.17
2023-04-23T13:06:48.966Z,20.02
2023-04-23T13:11:51.881Z,19.98
2023-04-23T13:16:54.468Z,19.99
2023-04-23T13:21:57.194Z,19.84
2023-04-23T13:27:01.826Z,19.49
2023-04-23T13:32:06.397Z,19.69
2023-04-23T13:37:09.417Z,19.44
2023-04-23T13:42:12.069Z,19.22
2023-04-23T13:47:14.617Z,19.21
2023-04-23T13:52:17.412Z,19.28
2023-04-23T13:57:20.248Z,19.25
2023-04-23T14:02:24.298Z,19.08
2023-04-23T14:07:27.059Z,19.29
2023-04-23T14:12:29.803Z,19.25
2023-04-23T14:17:32.431Z,19.06
2023-04-23T14:22:35.603Z,19.02
2023-04-23T14:27:44.526Z,19.03
2023-04-23T14:32:50.021Z,18.97
2023-04-23T14:37:53.301Z,18.79
2023-04-23T14:43:01.881Z,18.65
2023-04-23T14:48:11.215Z,18.46
2023-04-23T14:53:13.929Z,18.57
2023-04-23T14:58:16.507Z,18.48
2023-04-23T15:03:19.478Z,18.49
2023-04-23T15:08:22.198Z,18.46
2023-04-23T15:13:46.886Z,18.41
2023-04-23T15:18:49.468Z,18.26
2023-04-23T15:23:54.205Z,18.13
2023-04-23T15:28:58.687Z,17.93
2023-04-23T15:34:01.753Z,18.04
2023-04-23T15:39:04.573Z,17.80
2023-04-23T15:44:10.916Z,17.65
2023-04-23T15:49:13.811Z,17.56
2023-04-23T15:54:16.524Z,17.46
2023-04-23T15:59:19.096Z,17.30
2023-04-23T16:04:22.351Z,17.12
2023-04-23T16:09:25.293Z,17.05
2023-04-23T16:14:27.996Z,16.94
2023-04-23T16:19:30.790Z,16.73
2023-04-23T16:24:34.204Z,16.62
2023-04-23T16:29:38.040Z,16.33
2023-04-23T16:34:41.101Z,16.18
2023-04-23T16:39:44.101Z,16.01
2023-04-23T16:44:46.973Z,15.61
2023-04-23T16:49:49.572Z,15.57
2023-04-23T16:54:52.515Z,15.33
2023-04-23T16:59:55.051Z,15.30
2023-04-23T17:04:58.195Z,15.09
2023-04-23T17:10:01.026Z,14.92
2023-04-23T17:15:06.831Z,14.73
2023-04-23T17:20:09.602Z,14.64
2023-04-23T17:25:12.217Z,14.42
2023-04-23T17:30:15.040Z,14.00
2023-04-23T17:35:17.690Z,13.95
2023-04-23T17:40:20.884Z,13.83
2023-04-23T17:45:23.940Z,13.67
2023-04-23T17:50:28.394Z,13.56
2023-04-23T17:55:33.074Z,13.34
2023-04-23T18:00:37.286Z,13.12
2023-04-23T18:05:40.252Z,12.96
2023-04-23T18:10:45.435Z,12.81
2023-04-23T18:15:50.998Z,12.69
2023-04-23T18:20:53.624Z,12.56
2023-04-23T18:25:56.983Z,12.54
2023-04-23T18:31:02.715Z,12.39
2023-04-23T18:36:24.902Z,12.21
2023-04-23T18:41:30.756Z,12.11
2023-04-23T18:46:33.827Z,11.98
2023-04-23T18:51:45.881Z,11.99
2023-04-23T18:56:48.771Z,11.93
2023-04-23T19:01:51.817Z,11.88
2023-04-23T19:06:54.382Z,11.58
2023-04-23T19:11:57.388Z,11.51
2023-04-23T19:17:00.028Z,11.56
2023-04-23T19:22:03.951Z,11.37
2023-04-23T19:27:07.224Z,11.38
2023-04-23T19:32:09.786Z,11.45
2023-04-23T19:37:12.547Z,11.50
2023-04-23T19:42:15.272Z,11.17
2023-04-23T19:47:18.160Z,11.50
2023-04-23T19:52:23.442Z,11.42
2023-04-23T19:57:26.189Z,11.22
2023-04-23T20:02:29.029Z,10.93
2023-04-23T20:07:31.631Z,10.78
2023-04-23T20:12:36.898Z,10.93
2023-04-23T20:17:40.305Z,10.93
2023-04-23T20:22:42.864Z,10.73
2023-04-23T20:27:45.576Z,10.64
2023-04-23T20:32:48.346Z,10.52
2023-04-23T20:37:52.901Z,10.58
2023-04-23T20:42:58.578Z,10.53
2023-04-23T20:48:02.630Z,10.50
2023-04-23T20:53:05.633Z,10.45
2023-04-23T20:58:08.289Z,10.18
2023-04-23T21:03:11.403Z,10.09
2023-04-23T21:08:14.385Z,9.96
2023-04-23T21:13:17.225Z,10.05
2023-04-23T21:18:20.023Z,10.08
2023-04-23T21:23:22.557Z,10.04
2023-04-23T21:28:25.222Z,9.95
2023-04-23T21:33:27.798Z,9.91
2023-04-23T21:38:30.375Z,9.84
2023-04-23T21:43:35.600Z,9.91
2023-04-23T21:48:38.307Z,9.81
2023-04-23T21:53:41.065Z,9.73
2023-04-23T21:58:44.843Z,9.67
2023-04-23T22:03:48.007Z,9.84
2023-04-23T22:08:52.413Z,9.84
2023-04-23T22:13:55.006Z,9.72
2023-04-23T22:18:58.003Z,9.75
2023-04-23T22:24:00.787Z,9.61
2023-04-23T22:29:04.111Z,9.53
2023-04-23T22:34:06.782Z,9.53
2023-04-23T22:39:10.829Z,9.42
2023-04-23T22:44:13.511Z,9.44
2023-04-23T22:49:18.388Z,9.32
2023-04-23T22:54:21.177Z,9.34
2023-04-23T22:59:24.607Z,9.32
2023-04-23T23:04:27.361Z,9.36
2023-04-23T23:09:29.998Z,9.28
2023-04-23T23:14:34.038Z,9.22
2023-04-23T23:19:36.666Z,9.20
2023-04-23T23:24:39.380Z,9.24
2023-04-23T23:29:45.268Z,9.34
2023-04-23T23:34:47.953Z,9.19
2023-04-23T23:39:50.584Z,9.30
2023-04-23T23:44:53.138Z,9.27
2023-04-23T23:49:55.935Z,9.28
2023-04-23T23:54:58.701Z,9.31
